Kohju — H3XI — position and weather

sailwx.info

Track history (hours):
 
Tides and Currents Weather Stations Pressure Air Temp Water Temp Dewpoint Dewpoint Depression Visibility Wind Speed Wind Dir Waves Ship Positions

Kohju

Last reported at 2017-Jun-11 17:15 UTC. Time now 2017-Jun-25 18:59 UTC.
Position S 34°05' E 017°45'.
Warning: this ship's position is 14 days out of date.

Length 289 m; draft 9.8 m.

Type: Cargo ship. MMSI: 357349000.

Date/timePositionNaut miles runAvg speedWind from/ knotsBaromVisibWave heightAir tempDewpointWater temp
2017-Jun-11 17:15S 34°05' E 017°45'  
2017-Jun-06 15:34S 29°13' E 031°42'0 0.4
2017-Jun-06 15:28S 29°13' E 031°42'0 0.0
2017-Jun-06 14:58S 29°13' E 031°42'0 0.1
2017-Jun-06 14:25S 29°13' E 031°42'0 0.0
2017-Jun-06 13:25S 29°13' E 031°42'0 0.0
2017-Jun-06 12:55S 29°13' E 031°42'0 0.0
2017-Jun-06 12:25S 29°13' E 031°42'0 0.1
2017-Jun-06 11:55S 29°13' E 031°42'0 0.9
2017-Jun-06 11:30S 29°13' E 031°42'2 4.4
2017-Jun-06 11:00S 29°14' E 031°44'611.5
2017-Jun-06 10:30S 29°19' E 031°49'611.6
2017-Jun-06 10:00S 29°23' E 031°53'611.2
2017-Jun-06 09:30S 29°28' E 031°56'5 9.9
2017-Jun-06 09:00S 29°32' E 031°59'5 9.8
2017-Jun-06 08:29S 29°36' E 032°02'5 9.9
2017-Jun-06 08:00S 29°40' E 032°05'510.2
2017-Jun-06 07:30S 29°44' E 032°09'3 5.3
2017-Jun-06 07:00S 29°46' E 032°12'1 2.8
2017-Jun-06 06:30S 29°44' E 032°13'1 2.7
2017-Jun-06 06:00S 29°43' E 032°14'1 2.6
2017-Jun-06 05:30S 29°42' E 032°14'4 2.5
2017-Jun-06 03:58S 29°39' E 032°16'4 2.3
2017-Jun-06 02:11S 29°35' E 032°18'0 2.0
2017-Jun-06 02:00S 29°35' E 032°19'1 2.1
2017-Jun-06 01:24S 29°34' E 032°19'2 2.2
2017-Jun-06 00:42S 29°33' E 032°21'0 2.0
2017-Jun-06 00:28S 29°32' E 032°21'1 2.1
2017-Jun-05 23:59S 29°32' E 032°22'45810.9
2017-Jun-04 05:55S 31°35' E 040°54'  
Track history (hours):
 
Tides and Currents Weather Stations Pressure Air Temp Water Temp Dewpoint Dewpoint Depression Visibility Wind Speed Wind Dir Waves Ship Positions

Kohju

Last reported at 2017-Jun-11 17:15 UTC. Time now 2017-Jun-25 18:59 UTC.
Position S 34°05' E 017°45'.
Warning: this ship's position is 14 days out of date.

Length 289 m; draft 9.8 m.

Type: Cargo ship. MMSI: 357349000.

Date/timePositionNaut miles runAvg speedWind from/ knotsBaromVisibWave heightAir tempDewpointWater temp
2017-Jun-11 17:15S 34°05' E 017°45'  
2017-Jun-06 15:34S 29°13' E 031°42'0 0.4
2017-Jun-06 15:28S 29°13' E 031°42'0 0.0
2017-Jun-06 14:58S 29°13' E 031°42'0 0.1
2017-Jun-06 14:25S 29°13' E 031°42'0 0.0
2017-Jun-06 13:25S 29°13' E 031°42'0 0.0
2017-Jun-06 12:55S 29°13' E 031°42'0 0.0
2017-Jun-06 12:25S 29°13' E 031°42'0 0.1
2017-Jun-06 11:55S 29°13' E 031°42'0 0.9
2017-Jun-06 11:30S 29°13' E 031°42'2 4.4
2017-Jun-06 11:00S 29°14' E 031°44'611.5
2017-Jun-06 10:30S 29°19' E 031°49'611.6
2017-Jun-06 10:00S 29°23' E 031°53'611.2
2017-Jun-06 09:30S 29°28' E 031°56'5 9.9
2017-Jun-06 09:00S 29°32' E 031°59'5 9.8
2017-Jun-06 08:29S 29°36' E 032°02'5 9.9
2017-Jun-06 08:00S 29°40' E 032°05'510.2
2017-Jun-06 07:30S 29°44' E 032°09'3 5.3
2017-Jun-06 07:00S 29°46' E 032°12'1 2.8
2017-Jun-06 06:30S 29°44' E 032°13'1 2.7
2017-Jun-06 06:00S 29°43' E 032°14'1 2.6
2017-Jun-06 05:30S 29°42' E 032°14'4 2.5
2017-Jun-06 03:58S 29°39' E 032°16'4 2.3
2017-Jun-06 02:11S 29°35' E 032°18'0 2.0
2017-Jun-06 02:00S 29°35' E 032°19'1 2.1
2017-Jun-06 01:24S 29°34' E 032°19'2 2.2
2017-Jun-06 00:42S 29°33' E 032°21'0 2.0
2017-Jun-06 00:28S 29°32' E 032°21'1 2.1
2017-Jun-05 23:59S 29°32' E 032°22'45810.9
2017-Jun-04 05:55S 31°35' E 040°54'  

Dump ship's entire track history